createdAt,value
2023-05-13T00:00:44.514Z,14.37
2023-05-13T00:03:11.805Z,14.37
2023-05-13T00:05:38.962Z,14.27
2023-05-13T00:08:07.459Z,14.34
2023-05-13T00:10:35.309Z,14.31
2023-05-13T00:13:02.615Z,14.20
2023-05-13T00:15:29.479Z,14.31
2023-05-13T00:17:56.411Z,14.28
2023-05-13T00:20:23.542Z,14.28
2023-05-13T00:22:50.536Z,14.32
2023-05-13T00:25:17.342Z,14.27
2023-05-13T00:27:44.306Z,14.25
2023-05-13T00:30:11.876Z,14.28
2023-05-13T00:32:38.726Z,14.26
2023-05-13T00:35:06.211Z,14.23
2023-05-13T00:37:32.999Z,14.12
2023-05-13T00:39:59.798Z,14.23
2023-05-13T00:42:26.653Z,14.23
2023-05-13T00:44:53.446Z,14.11
2023-05-13T00:47:21.093Z,14.22
2023-05-13T00:49:48.161Z,14.22
2023-05-13T00:52:15.044Z,14.21
2023-05-13T00:54:41.874Z,14.16
2023-05-13T00:57:08.715Z,14.12
2023-05-13T00:59:35.566Z,14.15
2023-05-13T01:02:32.865Z,14.09
2023-05-13T01:05:30.782Z,14.12
2023-05-13T01:08:30.964Z,14.11
2023-05-13T01:11:08.423Z,13.99
2023-05-13T01:13:42.945Z,14.11
2023-05-13T01:16:15.851Z,14.11
2023-05-13T01:18:52.851Z,14.13
2023-05-13T01:21:29.622Z,14.14
2023-05-13T01:23:56.533Z,14.03
2023-05-13T01:26:24.303Z,14.00
2023-05-13T01:28:51.250Z,14.07
2023-05-13T01:31:19.455Z,14.01
2023-05-13T01:33:47.059Z,13.92
2023-05-13T01:36:14.360Z,13.97
2023-05-13T01:38:41.965Z,13.93
2023-05-13T01:41:08.721Z,13.95
2023-05-13T01:43:35.599Z,13.94
2023-05-13T01:46:02.619Z,13.85
2023-05-13T01:48:29.480Z,13.81
2023-05-13T01:50:56.294Z,13.92
2023-05-13T01:53:23.342Z,13.88
2023-05-13T01:55:50.799Z,13.83
2023-05-13T01:58:17.668Z,13.89
2023-05-13T02:00:44.472Z,13.87
2023-05-13T02:03:11.359Z,13.87
2023-05-13T02:05:38.202Z,13.83
2023-05-13T02:08:05.280Z,13.85
2023-05-13T02:10:32.306Z,13.82
2023-05-13T02:12:59.141Z,13.81
2023-05-13T02:15:25.946Z,13.82
2023-05-13T02:17:52.864Z,13.81
2023-05-13T02:20:20.122Z,13.82
2023-05-13T02:22:47.173Z,13.78
2023-05-13T02:25:14.011Z,13.70
2023-05-13T02:27:40.902Z,13.80
2023-05-13T02:30:08.436Z,13.57
2023-05-13T02:32:35.430Z,13.63
2023-05-13T02:35:02.225Z,13.61
2023-05-13T02:37:29.141Z,13.60
2023-05-13T02:39:56.069Z,13.62
2023-05-13T02:42:22.845Z,13.61
2023-05-13T02:44:49.687Z,13.58
2023-05-13T02:47:16.523Z,13.64
2023-05-13T02:49:43.472Z,13.63
2023-05-13T02:52:10.283Z,13.62
2023-05-13T02:54:37.138Z,13.61
2023-05-13T02:57:04.234Z,13.65
2023-05-13T02:59:31.046Z,13.58
2023-05-13T03:01:57.893Z,13.53
2023-05-13T03:04:25.261Z,13.51
2023-05-13T03:06:52.978Z,13.50
2023-05-13T03:09:19.837Z,13.56
2023-05-13T03:11:46.971Z,13.60
2023-05-13T03:14:13.780Z,13.57
2023-05-13T03:16:40.957Z,13.59
2023-05-13T03:19:07.967Z,13.60
2023-05-13T03:21:34.866Z,13.61
2023-05-13T03:24:01.691Z,13.62
2023-05-13T03:26:28.505Z,13.62
2023-05-13T03:28:55.359Z,13.60
2023-05-13T03:31:22.239Z,13.57
2023-05-13T03:33:49.146Z,13.57
2023-05-13T03:36:15.988Z,13.55
2023-05-13T03:38:42.789Z,13.57
2023-05-13T03:41:09.801Z,13.57
2023-05-13T03:43:36.566Z,13.59
2023-05-13T03:46:03.346Z,13.42
2023-05-13T03:48:30.299Z,13.55
2023-05-13T03:50:57.146Z,13.57
2023-05-13T03:53:23.988Z,13.51
2023-05-13T03:55:50.908Z,13.57
2023-05-13T03:58:18.461Z,13.49
2023-05-13T04:00:48.469Z,13.48
2023-05-13T04:03:19.290Z,13.41
2023-05-13T04:05:46.805Z,13.40
2023-05-13T04:08:13.848Z,13.34
2023-05-13T04:10:40.977Z,13.35
2023-05-13T04:13:08.140Z,13.31
2023-05-13T04:15:34.992Z,13.39
2023-05-13T04:18:01.819Z,13.34
2023-05-13T04:20:29.193Z,13.44
2023-05-13T04:22:56.193Z,13.44
2023-05-13T04:25:23.270Z,13.28
2023-05-13T04:27:50.260Z,13.31
2023-05-13T04:30:17.103Z,13.32
2023-05-13T04:32:44.098Z,13.40
2023-05-13T04:35:11.051Z,13.43
2023-05-13T04:37:38.487Z,13.42
2023-05-13T04:40:07.002Z,13.36
2023-05-13T04:42:34.079Z,13.37
2023-05-13T04:45:00.892Z,13.31
2023-05-13T04:47:27.765Z,13.25
2023-05-13T04:49:54.839Z,13.30
2023-05-13T04:52:22.216Z,13.22
2023-05-13T04:54:48.984Z,13.26
2023-05-13T04:57:15.789Z,13.30
2023-05-13T04:59:42.709Z,13.24
2023-05-13T05:02:09.569Z,13.30
2023-05-13T05:04:36.380Z,13.31
2023-05-13T05:07:03.168Z,13.33
2023-05-13T05:09:30.328Z,13.28
2023-05-13T05:11:57.176Z,13.37
2023-05-13T05:14:23.960Z,13.38
2023-05-13T05:16:50.892Z,13.36
2023-05-13T05:19:17.877Z,13.31
2023-05-13T05:21:44.731Z,13.28
2023-05-13T05:24:11.537Z,13.28
2023-05-13T05:26:38.360Z,13.32
2023-05-13T05:29:05.247Z,13.31
2023-05-13T05:31:32.200Z,13.37
2023-05-13T05:34:00.984Z,13.40
2023-05-13T05:36:29.882Z,13.35
2023-05-13T05:38:56.737Z,13.36
2023-05-13T05:41:23.604Z,13.33
2023-05-13T05:43:50.384Z,13.26
2023-05-13T05:46:17.396Z,13.36
2023-05-13T05:48:44.490Z,13.39
2023-05-13T05:51:11.517Z,13.39
2023-05-13T05:53:40.801Z,13.25
2023-05-13T05:56:08.161Z,13.39
2023-05-13T05:58:36.134Z,13.36
2023-05-13T06:01:02.975Z,13.37
2023-05-13T06:03:29.884Z,13.43
2023-05-13T06:05:57.199Z,13.39
2023-05-13T06:08:29.879Z,13.36
2023-05-13T06:10:59.687Z,13.34
2023-05-13T06:13:26.578Z,13.31
2023-05-13T06:15:53.472Z,13.38
2023-05-13T06:18:20.319Z,13.34
2023-05-13T06:20:47.242Z,13.42
2023-05-13T06:23:15.066Z,13.38
2023-05-13T06:25:42.189Z,13.40
2023-05-13T06:28:12.018Z,13.43
2023-05-13T06:30:39.036Z,13.42
2023-05-13T06:33:06.150Z,13.37
2023-05-13T06:35:33.087Z,13.39
2023-05-13T06:37:59.942Z,13.35
2023-05-13T06:40:26.984Z,13.42
2023-05-13T06:42:53.843Z,13.34
2023-05-13T06:45:23.323Z,13.45
2023-05-13T06:47:51.506Z,13.41
2023-05-13T06:50:18.874Z,13.52
2023-05-13T06:52:45.772Z,13.44
2023-05-13T06:55:13.120Z,13.51
2023-05-13T06:57:43.308Z,13.58
2023-05-13T07:00:11.302Z,13.54
2023-05-13T07:02:38.283Z,13.63
2023-05-13T07:05:05.697Z,13.64
2023-05-13T07:07:32.573Z,13.65
2023-05-13T07:09:59.405Z,13.71
2023-05-13T07:12:26.734Z,13.76
2023-05-13T07:14:53.641Z,13.74
2023-05-13T07:17:20.561Z,13.71
2023-05-13T07:19:47.508Z,13.75
2023-05-13T07:22:14.381Z,13.73
2023-05-13T07:24:41.790Z,13.80
2023-05-13T07:27:09.224Z,13.77
2023-05-13T07:29:36.141Z,13.84
2023-05-13T07:32:07.402Z,13.84
2023-05-13T07:34:34.205Z,13.82
2023-05-13T07:37:01.057Z,13.84
2023-05-13T07:39:28.291Z,13.82
2023-05-13T07:41:55.173Z,13.88
2023-05-13T07:44:22.769Z,13.77
2023-05-13T07:46:51.483Z,13.83
2023-05-13T07:49:18.349Z,13.92
2023-05-13T07:51:45.242Z,13.95
2023-05-13T07:54:12.033Z,13.93
2023-05-13T07:56:38.868Z,13.85
2023-05-13T07:59:05.910Z,13.98
2023-05-13T08:01:32.832Z,13.99
2023-05-13T08:03:59.991Z,14.05
2023-05-13T08:06:27.076Z,14.05
2023-05-13T08:08:55.472Z,14.00
2023-05-13T08:11:22.996Z,14.04
2023-05-13T08:13:49.881Z,14.03
2023-05-13T08:16:16.795Z,14.09
2023-05-13T08:18:43.681Z,14.16
2023-05-13T08:21:10.615Z,14.15
2023-05-13T08:23:45.507Z,14.16
2023-05-13T08:26:13.635Z,14.17
2023-05-13T08:28:41.922Z,14.16
2023-05-13T08:31:11.792Z,14.15
2023-05-13T08:33:39.822Z,14.19
2023-05-13T08:36:07.169Z,14.25
2023-05-13T08:38:34.715Z,14.21
2023-05-13T08:41:06.239Z,14.27
2023-05-13T08:43:34.244Z,14.25
2023-05-13T08:46:04.829Z,14.16
2023-05-13T08:48:32.559Z,14.28
2023-05-13T08:51:01.966Z,14.31
2023-05-13T08:53:29.415Z,14.27
2023-05-13T08:55:57.486Z,14.20
2023-05-13T08:58:25.450Z,14.21
2023-05-13T09:00:54.151Z,14.32
2023-05-13T09:03:21.677Z,14.29
2023-05-13T09:05:48.604Z,14.33
2023-05-13T09:08:15.404Z,14.23
2023-05-13T09:10:42.861Z,14.32
2023-05-13T09:13:12.352Z,14.20
2023-05-13T09:15:42.467Z,14.32
2023-05-13T09:18:09.549Z,14.34
2023-05-13T09:20:36.660Z,14.23
2023-05-13T09:23:07.253Z,14.33
2023-05-13T09:25:35.116Z,14.35
2023-05-13T09:28:04.430Z,14.34
2023-05-13T09:30:34.751Z,14.38
2023-05-13T09:33:10.174Z,14.37
2023-05-13T09:35:40.240Z,14.16
2023-05-13T09:38:34.649Z,14.38
2023-05-13T09:41:03.115Z,14.34
2023-05-13T09:43:33.700Z,14.38
2023-05-13T09:46:05.347Z,14.35
2023-05-13T09:48:33.794Z,14.33
2023-05-13T09:51:01.116Z,14.32
2023-05-13T09:53:29.102Z,14.34
2023-05-13T09:55:57.729Z,14.35
2023-05-13T09:58:29.049Z,14.39
2023-05-13T10:00:56.642Z,14.43
2023-05-13T10:03:23.916Z,14.32
2023-05-13T10:05:52.530Z,14.37
2023-05-13T10:08:19.715Z,14.43
2023-05-13T10:10:48.227Z,14.34
2023-05-13T10:13:16.784Z,14.39
2023-05-13T10:15:54.344Z,14.35
2023-05-13T10:18:23.892Z,14.26
2023-05-13T10:20:53.599Z,14.38
2023-05-13T10:23:23.975Z,14.40
2023-05-13T10:25:54.428Z,14.20
2023-05-13T10:28:22.322Z,14.35
2023-05-13T10:30:53.776Z,14.41
2023-05-13T10:33:21.565Z,14.43
2023-05-13T10:36:38.835Z,14.42
2023-05-13T10:39:39.528Z,14.41
2023-05-13T10:42:29.674Z,14.42
2023-05-13T10:44:58.586Z,14.43
2023-05-13T10:47:27.196Z,14.41
2023-05-13T10:49:54.421Z,14.45
2023-05-13T10:52:21.526Z,14.42
2023-05-13T10:55:02.529Z,14.43
2023-05-13T10:57:36.972Z,14.42
2023-05-13T11:00:16.897Z,14.41
2023-05-13T11:02:44.239Z,14.44
2023-05-13T11:05:21.084Z,14.38
2023-05-13T11:07:58.091Z,14.42
2023-05-13T11:10:32.641Z,14.37
2023-05-13T11:13:14.576Z,14.48
2023-05-13T11:15:53.129Z,14.39
2023-05-13T11:18:24.658Z,14.50
2023-05-13T11:20:53.896Z,14.46
2023-05-13T11:23:21.471Z,14.53
2023-05-13T11:26:14.211Z,14.51
2023-05-13T11:29:04.825Z,14.54
2023-05-13T11:31:50.427Z,14.49
2023-05-13T11:34:21.724Z,14.62
2023-05-13T11:36:58.236Z,14.62
2023-05-13T11:39:28.758Z,14.58
2023-05-13T11:41:57.425Z,14.61
2023-05-13T11:44:26.088Z,14.57
2023-05-13T11:47:02.085Z,14.71
2023-05-13T11:49:44.571Z,14.67
2023-05-13T11:52:17.894Z,14.59
2023-05-13T11:54:57.602Z,14.75
2023-05-13T11:57:32.485Z,14.75
2023-05-13T12:00:06.689Z,14.77
2023-05-13T12:02:40.518Z,14.77
2023-05-13T12:05:10.180Z,14.77
2023-05-13T12:07:39.629Z,14.81
2023-05-13T12:10:08.340Z,14.75
2023-05-13T12:12:39.105Z,14.86
2023-05-13T12:15:19.379Z,14.91
2023-05-13T12:17:48.582Z,14.90
2023-05-13T12:20:18.370Z,14.94
2023-05-13T12:22:48.279Z,14.96
2023-05-13T12:25:44.931Z,14.93
2023-05-13T12:28:20.951Z,14.92
2023-05-13T12:30:54.586Z,14.96
2023-05-13T12:33:26.565Z,15.00
2023-05-13T12:36:16.093Z,15.03
2023-05-13T12:39:01.381Z,14.95
2023-05-13T12:41:39.880Z,15.02
2023-05-13T12:44:17.041Z,14.94
2023-05-13T12:46:55.377Z,15.08
2023-05-13T12:49:22.586Z,15.06
2023-05-13T12:51:51.607Z,15.05
2023-05-13T12:54:18.976Z,14.95
2023-05-13T12:56:46.238Z,15.07
2023-05-13T12:59:14.668Z,15.10
2023-05-13T13:01:43.020Z,15.09
2023-05-13T13:04:10.730Z,15.13
2023-05-13T13:06:37.766Z,15.05
2023-05-13T13:09:06.034Z,15.16
2023-05-13T13:11:33.108Z,15.08
2023-05-13T13:14:01.240Z,15.05
2023-05-13T13:16:28.865Z,15.15
2023-05-13T13:18:59.929Z,15.12
2023-05-13T13:21:28.652Z,15.14
2023-05-13T13:23:55.799Z,15.09
2023-05-13T13:26:23.329Z,15.05
2023-05-13T13:28:50.370Z,15.08
2023-05-13T13:31:17.402Z,15.14
2023-05-13T13:33:44.717Z,15.18
2023-05-13T13:36:11.673Z,15.11
2023-05-13T13:38:38.639Z,15.20
2023-05-13T13:41:06.231Z,15.14
2023-05-13T13:43:33.358Z,15.21
2023-05-13T13:46:00.353Z,15.19
2023-05-13T13:48:27.259Z,15.23
2023-05-13T13:50:55.076Z,15.22
2023-05-13T13:53:22.472Z,15.24
2023-05-13T13:55:49.340Z,15.27
2023-05-13T13:58:16.282Z,15.23
2023-05-13T14:00:45.396Z,15.18
2023-05-13T14:03:12.494Z,15.23
2023-05-13T14:05:39.544Z,15.24
2023-05-13T14:08:06.775Z,15.24
2023-05-13T14:10:33.613Z,15.16
2023-05-13T14:13:00.767Z,15.27
2023-05-13T14:15:30.257Z,15.22
2023-05-13T14:17:57.922Z,15.11
2023-05-13T14:20:25.156Z,15.21
2023-05-13T14:22:52.298Z,15.19
2023-05-13T14:25:19.501Z,15.14
2023-05-13T14:27:46.542Z,15.16
2023-05-13T14:30:13.825Z,15.13
2023-05-13T14:32:45.369Z,15.25
2023-05-13T14:35:13.587Z,15.34
2023-05-13T14:37:41.392Z,15.30
2023-05-13T14:40:09.735Z,15.18
2023-05-13T14:42:36.731Z,15.22
2023-05-13T14:45:04.045Z,15.22
2023-05-13T14:47:31.036Z,15.19
2023-05-13T14:49:58.131Z,15.31
2023-05-13T14:52:25.535Z,15.40
2023-05-13T14:54:53.824Z,15.31
2023-05-13T14:57:21.340Z,15.20
2023-05-13T14:59:48.260Z,15.32
2023-05-13T15:02:17.298Z,15.30
2023-05-13T15:04:44.877Z,15.19
2023-05-13T15:07:12.072Z,15.26
2023-05-13T15:09:41.178Z,15.43
2023-05-13T15:12:09.961Z,15.36
2023-05-13T15:14:36.840Z,15.27
2023-05-13T15:17:06.172Z,15.29
2023-05-13T15:19:35.968Z,15.29
2023-05-13T15:22:02.935Z,15.46
2023-05-13T15:24:31.331Z,15.46
2023-05-13T15:26:58.479Z,15.49
2023-05-13T15:29:25.394Z,15.47
2023-05-13T15:31:52.647Z,15.44
2023-05-13T15:34:19.456Z,15.44
2023-05-13T15:36:46.450Z,15.36
2023-05-13T15:39:13.509Z,15.43
2023-05-13T15:41:40.462Z,15.39
2023-05-13T15:44:07.259Z,15.41
2023-05-13T15:46:34.715Z,15.43
2023-05-13T15:49:02.293Z,15.44
2023-05-13T15:51:29.642Z,15.43
2023-05-13T15:53:56.556Z,15.44
2023-05-13T15:56:23.900Z,15.45
2023-05-13T15:58:52.562Z,15.41
2023-05-13T16:01:19.574Z,15.46
2023-05-13T16:03:46.480Z,15.46
2023-05-13T16:06:13.477Z,15.39
2023-05-13T16:08:40.415Z,15.37
2023-05-13T16:11:07.291Z,15.44
2023-05-13T16:13:35.298Z,15.42
2023-05-13T16:16:02.369Z,15.44
2023-05-13T16:18:29.511Z,15.41
2023-05-13T16:20:57.775Z,15.44
2023-05-13T16:23:24.808Z,15.46
2023-05-13T16:25:51.753Z,15.46
2023-05-13T16:28:18.621Z,15.46
2023-05-13T16:30:48.057Z,15.43
2023-05-13T16:33:16.003Z,15.41
2023-05-13T16:35:43.756Z,15.26
2023-05-13T16:38:11.348Z,15.38
2023-05-13T16:40:41.459Z,15.39
2023-05-13T16:43:09.099Z,15.35
2023-05-13T16:45:36.056Z,15.32
2023-05-13T16:48:02.904Z,15.28
2023-05-13T16:50:30.546Z,15.36
2023-05-13T16:52:57.646Z,15.37
2023-05-13T16:55:26.015Z,15.35
2023-05-13T16:57:53.933Z,15.32
2023-05-13T17:00:21.052Z,15.33
2023-05-13T17:02:49.858Z,15.37
2023-05-13T17:05:18.611Z,15.28
2023-05-13T17:07:45.696Z,15.35
2023-05-13T17:10:13.854Z,15.35
2023-05-13T17:12:40.843Z,15.26
2023-05-13T17:15:08.502Z,15.30
2023-05-13T17:17:35.556Z,15.32
2023-05-13T17:20:02.650Z,15.27
2023-05-13T17:22:29.777Z,15.32
2023-05-13T17:24:56.600Z,15.32
2023-05-13T17:27:23.565Z,15.22
2023-05-13T17:29:50.438Z,15.29
2023-05-13T17:32:17.904Z,15.28
2023-05-13T17:34:44.865Z,15.23
2023-05-13T17:37:11.929Z,15.30
2023-05-13T17:39:39.980Z,15.31
2023-05-13T17:42:06.920Z,15.37
2023-05-13T17:44:33.964Z,15.35
2023-05-13T17:47:01.912Z,15.33
2023-05-13T17:49:29.565Z,15.34
2023-05-13T17:51:56.714Z,15.25
2023-05-13T17:54:23.610Z,15.25
2023-05-13T17:56:50.743Z,15.30
2023-05-13T17:59:20.469Z,15.30
2023-05-13T18:01:47.474Z,15.23
2023-05-13T18:04:14.403Z,15.37
2023-05-13T18:06:41.364Z,15.39
2023-05-13T18:09:08.914Z,15.35
2023-05-13T18:11:35.873Z,15.37
2023-05-13T18:14:03.202Z,15.27
2023-05-13T18:16:30.272Z,15.30
2023-05-13T18:18:57.330Z,15.25
2023-05-13T18:21:27.391Z,15.27
2023-05-13T18:23:55.945Z,15.24
2023-05-13T18:26:23.135Z,15.26
2023-05-13T18:28:50.225Z,15.25
2023-05-13T18:31:17.353Z,15.23
2023-05-13T18:33:44.359Z,15.13
2023-05-13T18:36:11.177Z,15.22
2023-05-13T18:38:41.684Z,15.24
2023-05-13T18:41:20.332Z,15.22
2023-05-13T18:43:52.262Z,15.20
2023-05-13T18:46:21.424Z,15.20
2023-05-13T18:48:53.382Z,15.12
2023-05-13T18:51:22.362Z,15.11
2023-05-13T18:53:49.966Z,15.20
2023-05-13T18:56:17.219Z,15.19
2023-05-13T18:58:46.727Z,15.18
2023-05-13T19:01:15.798Z,15.19
2023-05-13T19:03:43.502Z,15.15
2023-05-13T19:06:12.058Z,15.18
2023-05-13T19:08:40.078Z,15.16
2023-05-13T19:11:07.270Z,15.18
2023-05-13T19:13:46.159Z,15.19
2023-05-13T19:16:13.958Z,15.14
2023-05-13T19:18:40.875Z,15.21
2023-05-13T19:21:10.118Z,15.14
2023-05-13T19:23:49.762Z,15.22
2023-05-13T19:26:18.533Z,15.23
2023-05-13T19:28:47.983Z,15.26
2023-05-13T19:31:17.830Z,15.25
2023-05-13T19:33:46.226Z,15.25
2023-05-13T19:36:13.417Z,15.22
2023-05-13T19:38:40.228Z,15.19
2023-05-13T19:41:07.079Z,15.14
2023-05-13T19:43:33.878Z,15.05
2023-05-13T19:46:00.855Z,14.89
2023-05-13T19:48:29.926Z,14.69
2023-05-13T19:50:58.193Z,14.71
2023-05-13T19:53:25.038Z,14.67
2023-05-13T19:55:51.956Z,14.73
2023-05-13T19:58:18.759Z,14.68
2023-05-13T20:00:46.302Z,14.74
2023-05-13T20:03:13.469Z,14.76
2023-05-13T20:05:43.568Z,14.78
2023-05-13T20:08:10.644Z,14.75
2023-05-13T20:10:37.456Z,14.74
2023-05-13T20:13:04.712Z,14.71
2023-05-13T20:15:32.091Z,14.66
2023-05-13T20:17:59.100Z,14.60
2023-05-13T20:20:26.015Z,14.65
2023-05-13T20:22:52.926Z,14.64
2023-05-13T20:25:20.118Z,14.59
2023-05-13T20:27:46.945Z,14.47
2023-05-13T20:30:15.194Z,14.53
2023-05-13T20:32:42.172Z,14.49
2023-05-13T20:35:10.248Z,14.48
2023-05-13T20:37:37.073Z,14.51
2023-05-13T20:40:04.567Z,14.56
2023-05-13T20:42:31.912Z,14.57
2023-05-13T20:44:58.830Z,14.61
2023-05-13T20:47:25.644Z,14.60
2023-05-13T20:49:52.425Z,14.57
2023-05-13T20:52:19.328Z,14.56
2023-05-13T20:54:46.206Z,14.60
2023-05-13T20:57:13.085Z,14.54
2023-05-13T20:59:40.148Z,14.55
2023-05-13T21:02:07.678Z,14.55
2023-05-13T21:04:34.500Z,14.47
2023-05-13T21:07:01.390Z,14.42
2023-05-13T21:09:28.167Z,14.38
2023-05-13T21:11:55.120Z,14.38
2023-05-13T21:14:22.064Z,14.40
2023-05-13T21:16:48.968Z,14.40
2023-05-13T21:19:24.167Z,14.37
2023-05-13T21:21:51.144Z,14.34
2023-05-13T21:24:19.192Z,14.32
2023-05-13T21:26:46.973Z,14.29
2023-05-13T21:29:13.827Z,14.32
2023-05-13T21:31:40.711Z,14.26
2023-05-13T21:34:07.536Z,14.32
2023-05-13T21:36:34.411Z,14.15
2023-05-13T21:39:01.621Z,14.28
2023-05-13T21:41:28.402Z,14.33
2023-05-13T21:43:55.183Z,14.30
2023-05-13T21:46:21.952Z,14.31
2023-05-13T21:48:48.935Z,14.30
2023-05-13T21:51:15.720Z,14.30
2023-05-13T21:53:43.415Z,14.29
2023-05-13T21:56:10.261Z,14.34
2023-05-13T21:58:37.059Z,14.32
2023-05-13T22:01:03.884Z,14.26
2023-05-13T22:03:30.765Z,14.22
2023-05-13T22:05:57.716Z,14.22
2023-05-13T22:08:24.606Z,14.24
2023-05-13T22:10:51.395Z,14.25
2023-05-13T22:13:21.395Z,14.20
2023-05-13T22:15:48.979Z,14.21
2023-05-13T22:18:15.937Z,14.22
2023-05-13T22:20:42.863Z,14.14
2023-05-13T22:23:09.643Z,14.14
2023-05-13T22:25:36.485Z,13.98
2023-05-13T22:28:03.288Z,14.10
2023-05-13T22:30:30.084Z,14.09
2023-05-13T22:32:57.079Z,14.17
2023-05-13T22:35:24.056Z,14.21
2023-05-13T22:37:52.528Z,14.20
2023-05-13T22:40:19.623Z,14.19
2023-05-13T22:42:46.677Z,14.19
2023-05-13T22:45:13.551Z,14.24
2023-05-13T22:47:40.428Z,14.24
2023-05-13T22:50:07.982Z,14.22
2023-05-13T22:52:34.990Z,14.12
2023-05-13T22:55:01.819Z,14.09
2023-05-13T22:57:28.796Z,14.07
2023-05-13T22:59:55.719Z,14.16
2023-05-13T23:02:23.568Z,14.10
2023-05-13T23:04:50.508Z,14.05
2023-05-13T23:07:17.377Z,14.09
2023-05-13T23:09:44.358Z,14.03
2023-05-13T23:12:11.372Z,14.10
2023-05-13T23:14:39.800Z,14.09
2023-05-13T23:17:06.736Z,14.08
2023-05-13T23:19:34.077Z,14.10
2023-05-13T23:22:00.998Z,14.08
2023-05-13T23:24:27.877Z,14.04
2023-05-13T23:26:54.887Z,14.06
2023-05-13T23:29:21.714Z,14.06
2023-05-13T23:31:48.584Z,14.07
2023-05-13T23:34:15.420Z,14.07
2023-05-13T23:36:42.244Z,13.98
2023-05-13T23:39:09.704Z,13.97
2023-05-13T23:41:36.531Z,14.05
2023-05-13T23:44:03.813Z,13.91
2023-05-13T23:46:31.885Z,13.97
2023-05-13T23:48:59.976Z,14.00
2023-05-13T23:51:26.765Z,13.99
2023-05-13T23:53:55.365Z,13.96
2023-05-13T23:56:22.450Z,13.95
2023-05-13T23:58:49.328Z,14.00
